sensor_id;sensor_type;location;lat;lon;timestamp;P1;durP1;ratioP1;P2;durP2;ratioP2
17636;SDS011;8937;51.236;6.794;2023-07-02T00:08:10;2.33;;;2.00;;
17636;SDS011;8937;51.236;6.794;2023-07-02T00:16:32;1.77;;;1.60;;
17636;SDS011;8937;51.236;6.794;2023-07-02T00:24:54;6.57;;;1.47;;
17636;SDS011;8937;51.236;6.794;2023-07-02T00:33:17;2.00;;;1.90;;
17636;SDS011;8937;51.236;6.794;2023-07-02T00:41:38;3.53;;;1.90;;
17636;SDS011;8937;51.236;6.794;2023-07-02T00:50:01;1.93;;;1.70;;
17636;SDS011;8937;51.236;6.794;2023-07-02T00:58:23;2.23;;;1.90;;
17636;SDS011;8937;51.236;6.794;2023-07-02T01:06:46;3.90;;;2.37;;
17636;SDS011;8937;51.236;6.794;2023-07-02T01:15:08;3.40;;;2.10;;
17636;SDS011;8937;51.236;6.794;2023-07-02T01:23:30;3.67;;;3.13;;
17636;SDS011;8937;51.236;6.794;2023-07-02T01:31:52;5.40;;;3.50;;
17636;SDS011;8937;51.236;6.794;2023-07-02T01:40:14;5.03;;;3.40;;
17636;SDS011;8937;51.236;6.794;2023-07-02T01:48:36;4.70;;;3.40;;
17636;SDS011;8937;51.236;6.794;2023-07-02T01:56:58;5.70;;;3.57;;
17636;SDS011;8937;51.236;6.794;2023-07-02T02:05:20;7.57;;;4.20;;
17636;SDS011;8937;51.236;6.794;2023-07-02T02:13:43;7.20;;;3.83;;
17636;SDS011;8937;51.236;6.794;2023-07-02T02:31:03;7.07;;;4.73;;
17636;SDS011;8937;51.236;6.794;2023-07-02T02:39:24;8.37;;;5.07;;
17636;SDS011;8937;51.236;6.794;2023-07-02T02:47:47;6.87;;;4.70;;
17636;SDS011;8937;51.236;6.794;2023-07-02T02:56:09;8.90;;;5.63;;
17636;SDS011;8937;51.236;6.794;2023-07-02T03:04:31;13.87;;;6.27;;
17636;SDS011;8937;51.236;6.794;2023-07-02T03:12:53;8.03;;;5.80;;
17636;SDS011;8937;51.236;6.794;2023-07-02T03:21:16;11.47;;;6.70;;
17636;SDS011;8937;51.236;6.794;2023-07-02T03:29:37;12.67;;;6.63;;
17636;SDS011;8937;51.236;6.794;2023-07-02T03:38:00;10.63;;;7.10;;
17636;SDS011;8937;51.236;6.794;2023-07-02T03:46:22;12.70;;;6.37;;
17636;SDS011;8937;51.236;6.794;2023-07-02T03:54:44;13.97;;;7.17;;
17636;SDS011;8937;51.236;6.794;2023-07-02T04:03:06;12.83;;;7.30;;
17636;SDS011;8937;51.236;6.794;2023-07-02T04:11:28;14.17;;;7.60;;
17636;SDS011;8937;51.236;6.794;2023-07-02T04:19:50;11.30;;;6.97;;
17636;SDS011;8937;51.236;6.794;2023-07-02T04:28:12;14.63;;;7.17;;
17636;SDS011;8937;51.236;6.794;2023-07-02T04:36:34;14.80;;;7.30;;
17636;SDS011;8937;51.236;6.794;2023-07-02T04:44:57;13.30;;;7.83;;
17636;SDS011;8937;51.236;6.794;2023-07-02T04:53:22;11.53;;;7.70;;
17636;SDS011;8937;51.236;6.794;2023-07-02T05:01:45;14.27;;;7.83;;
17636;SDS011;8937;51.236;6.794;2023-07-02T05:10:06;17.23;;;8.43;;
17636;SDS011;8937;51.236;6.794;2023-07-02T05:18:29;13.10;;;8.23;;
17636;SDS011;8937;51.236;6.794;2023-07-02T05:26:50;18.10;;;8.87;;
17636;SDS011;8937;51.236;6.794;2023-07-02T05:35:13;16.27;;;8.23;;
17636;SDS011;8937;51.236;6.794;2023-07-02T05:43:34;15.50;;;9.17;;
17636;SDS011;8937;51.236;6.794;2023-07-02T05:51:57;16.90;;;9.20;;
17636;SDS011;8937;51.236;6.794;2023-07-02T06:00:19;17.53;;;9.50;;
17636;SDS011;8937;51.236;6.794;2023-07-02T06:08:41;15.73;;;8.63;;
17636;SDS011;8937;51.236;6.794;2023-07-02T06:17:03;14.80;;;9.00;;
17636;SDS011;8937;51.236;6.794;2023-07-02T06:25:27;14.70;;;8.05;;
17636;SDS011;8937;51.236;6.794;2023-07-02T06:33:49;14.90;;;8.07;;
17636;SDS011;8937;51.236;6.794;2023-07-02T06:42:12;19.10;;;9.25;;
17636;SDS011;8937;51.236;6.794;2023-07-02T06:50:33;14.07;;;8.13;;
17636;SDS011;8937;51.236;6.794;2023-07-02T06:58:56;14.65;;;8.18;;
17636;SDS011;8937;51.236;6.794;2023-07-02T07:07:17;13.75;;;7.47;;
17636;SDS011;8937;51.236;6.794;2023-07-02T07:15:40;14.82;;;7.85;;
17636;SDS011;8937;51.236;6.794;2023-07-02T07:24:02;9.20;;;6.15;;
17636;SDS011;8937;51.236;6.794;2023-07-02T07:32:25;14.20;;;6.40;;
17636;SDS011;8937;51.236;6.794;2023-07-02T07:40:47;11.00;;;6.35;;
17636;SDS011;8937;51.236;6.794;2023-07-02T07:49:09;11.68;;;6.32;;
17636;SDS011;8937;51.236;6.794;2023-07-02T07:57:31;9.77;;;6.85;;
17636;SDS011;8937;51.236;6.794;2023-07-02T08:05:54;13.45;;;7.43;;
17636;SDS011;8937;51.236;6.794;2023-07-02T08:14:15;12.32;;;7.55;;
17636;SDS011;8937;51.236;6.794;2023-07-02T08:22:38;14.32;;;7.93;;
17636;SDS011;8937;51.236;6.794;2023-07-02T08:31:00;13.07;;;7.20;;
17636;SDS011;8937;51.236;6.794;2023-07-02T08:39:23;13.80;;;6.38;;
17636;SDS011;8937;51.236;6.794;2023-07-02T08:47:45;11.55;;;6.88;;
17636;SDS011;8937;51.236;6.794;2023-07-02T08:56:07;13.60;;;7.47;;
17636;SDS011;8937;51.236;6.794;2023-07-02T09:04:29;14.77;;;7.55;;
17636;SDS011;8937;51.236;6.794;2023-07-02T09:13:01;11.15;;;6.28;;
17636;SDS011;8937;51.236;6.794;2023-07-02T09:21:25;12.23;;;7.72;;
17636;SDS011;8937;51.236;6.794;2023-07-02T09:29:50;12.88;;;7.43;;
17636;SDS011;8937;51.236;6.794;2023-07-02T09:38:12;13.90;;;7.35;;
17636;SDS011;8937;51.236;6.794;2023-07-02T09:46:35;11.70;;;7.90;;
17636;SDS011;8937;51.236;6.794;2023-07-02T09:54:58;17.35;;;8.73;;
17636;SDS011;8937;51.236;6.794;2023-07-02T10:03:30;15.30;;;8.35;;
17636;SDS011;8937;51.236;6.794;2023-07-02T10:11:52;20.50;;;8.60;;
17636;SDS011;8937;51.236;6.794;2023-07-02T10:20:15;18.92;;;7.57;;
17636;SDS011;8937;51.236;6.794;2023-07-02T10:28:36;14.70;;;5.80;;
17636;SDS011;8937;51.236;6.794;2023-07-02T10:36:59;14.23;;;5.68;;
17636;SDS011;8937;51.236;6.794;2023-07-02T10:45:20;15.13;;;6.70;;
17636;SDS011;8937;51.236;6.794;2023-07-02T10:53:43;8.95;;;5.22;;
17636;SDS011;8937;51.236;6.794;2023-07-02T11:02:05;10.52;;;4.65;;
17636;SDS011;8937;51.236;6.794;2023-07-02T11:10:28;8.52;;;4.65;;
17636;SDS011;8937;51.236;6.794;2023-07-02T11:18:51;14.00;;;5.13;;
17636;SDS011;8937;51.236;6.794;2023-07-02T11:27:20;7.22;;;4.15;;
17636;SDS011;8937;51.236;6.794;2023-07-02T11:35:42;6.05;;;4.07;;
17636;SDS011;8937;51.236;6.794;2023-07-02T11:44:05;6.68;;;4.30;;
17636;SDS011;8937;51.236;6.794;2023-07-02T11:52:27;8.18;;;4.32;;
17636;SDS011;8937;51.236;6.794;2023-07-02T12:00:50;8.45;;;4.90;;
17636;SDS011;8937;51.236;6.794;2023-07-02T12:09:11;8.10;;;5.05;;
17636;SDS011;8937;51.236;6.794;2023-07-02T12:17:34;12.32;;;4.75;;
17636;SDS011;8937;51.236;6.794;2023-07-02T12:25:55;7.22;;;4.32;;
17636;SDS011;8937;51.236;6.794;2023-07-02T12:34:18;9.57;;;4.70;;
17636;SDS011;8937;51.236;6.794;2023-07-02T12:42:40;13.27;;;5.13;;
17636;SDS011;8937;51.236;6.794;2023-07-02T12:51:03;9.70;;;5.00;;
17636;SDS011;8937;51.236;6.794;2023-07-02T12:59:25;9.02;;;4.50;;
17636;SDS011;8937;51.236;6.794;2023-07-02T13:07:48;7.15;;;4.20;;
17636;SDS011;8937;51.236;6.794;2023-07-02T13:16:09;9.13;;;4.57;;
17636;SDS011;8937;51.236;6.794;2023-07-02T13:24:33;8.98;;;4.20;;
17636;SDS011;8937;51.236;6.794;2023-07-02T13:32:55;6.60;;;4.15;;
17636;SDS011;8937;51.236;6.794;2023-07-02T13:41:18;7.85;;;4.32;;
17636;SDS011;8937;51.236;6.794;2023-07-02T13:49:39;7.85;;;4.72;;
17636;SDS011;8937;51.236;6.794;2023-07-02T13:58:02;8.57;;;4.47;;
17636;SDS011;8937;51.236;6.794;2023-07-02T14:06:25;8.85;;;4.85;;
17636;SDS011;8937;51.236;6.794;2023-07-02T14:14:46;8.77;;;4.65;;
17636;SDS011;8937;51.236;6.794;2023-07-02T14:23:09;8.88;;;4.43;;
17636;SDS011;8937;51.236;6.794;2023-07-02T14:31:30;10.15;;;4.82;;
17636;SDS011;8937;51.236;6.794;2023-07-02T14:39:53;7.78;;;4.50;;
17636;SDS011;8937;51.236;6.794;2023-07-02T14:48:14;12.02;;;5.50;;
17636;SDS011;8937;51.236;6.794;2023-07-02T14:56:38;9.95;;;4.95;;
17636;SDS011;8937;51.236;6.794;2023-07-02T15:04:59;9.82;;;5.32;;
17636;SDS011;8937;51.236;6.794;2023-07-02T15:13:24;8.13;;;5.32;;
17636;SDS011;8937;51.236;6.794;2023-07-02T15:21:45;9.20;;;5.13;;
17636;SDS011;8937;51.236;6.794;2023-07-02T15:30:09;10.02;;;6.05;;
17636;SDS011;8937;51.236;6.794;2023-07-02T15:38:30;9.35;;;5.07;;
17636;SDS011;8937;51.236;6.794;2023-07-02T15:46:53;9.07;;;6.18;;
17636;SDS011;8937;51.236;6.794;2023-07-02T15:55:14;7.97;;;4.85;;
17636;SDS011;8937;51.236;6.794;2023-07-02T16:03:37;6.82;;;4.63;;
17636;SDS011;8937;51.236;6.794;2023-07-02T16:11:58;7.55;;;4.60;;
17636;SDS011;8937;51.236;6.794;2023-07-02T16:20:21;7.70;;;5.03;;
17636;SDS011;8937;51.236;6.794;2023-07-02T16:28:42;7.88;;;5.30;;
17636;SDS011;8937;51.236;6.794;2023-07-02T16:37:05;7.68;;;4.88;;
17636;SDS011;8937;51.236;6.794;2023-07-02T16:45:26;7.22;;;4.95;;
17636;SDS011;8937;51.236;6.794;2023-07-02T16:53:49;10.32;;;5.28;;
17636;SDS011;8937;51.236;6.794;2023-07-02T17:02:10;7.97;;;4.80;;
17636;SDS011;8937;51.236;6.794;2023-07-02T17:10:33;5.20;;;4.28;;
17636;SDS011;8937;51.236;6.794;2023-07-02T17:18:55;6.90;;;4.60;;
17636;SDS011;8937;51.236;6.794;2023-07-02T17:27:18;8.48;;;5.00;;
17636;SDS011;8937;51.236;6.794;2023-07-02T17:35:40;6.55;;;4.38;;
17636;SDS011;8937;51.236;6.794;2023-07-02T17:44:04;8.40;;;4.72;;
17636;SDS011;8937;51.236;6.794;2023-07-02T17:52:25;6.18;;;4.70;;
17636;SDS011;8937;51.236;6.794;2023-07-02T18:00:48;8.38;;;5.40;;
17636;SDS011;8937;51.236;6.794;2023-07-02T18:09:10;9.10;;;4.97;;
17636;SDS011;8937;51.236;6.794;2023-07-02T18:17:33;8.68;;;4.53;;
17636;SDS011;8937;51.236;6.794;2023-07-02T18:25:54;8.40;;;4.72;;
17636;SDS011;8937;51.236;6.794;2023-07-02T18:34:19;8.20;;;4.90;;
17636;SDS011;8937;51.236;6.794;2023-07-02T18:42:41;8.00;;;4.78;;
17636;SDS011;8937;51.236;6.794;2023-07-02T18:51:04;9.45;;;4.65;;
17636;SDS011;8937;51.236;6.794;2023-07-02T18:59:26;8.57;;;4.65;;
17636;SDS011;8937;51.236;6.794;2023-07-02T19:07:49;8.13;;;4.75;;
17636;SDS011;8937;51.236;6.794;2023-07-02T19:16:10;7.50;;;4.80;;
17636;SDS011;8937;51.236;6.794;2023-07-02T19:24:34;7.65;;;4.72;;
17636;SDS011;8937;51.236;6.794;2023-07-02T19:32:55;9.68;;;4.57;;
17636;SDS011;8937;51.236;6.794;2023-07-02T19:41:18;8.48;;;5.20;;
17636;SDS011;8937;51.236;6.794;2023-07-02T19:49:40;6.70;;;4.43;;
17636;SDS011;8937;51.236;6.794;2023-07-02T19:58:05;7.68;;;4.82;;
17636;SDS011;8937;51.236;6.794;2023-07-02T20:06:27;11.32;;;4.35;;
17636;SDS011;8937;51.236;6.794;2023-07-02T20:14:50;9.27;;;4.45;;
17636;SDS011;8937;51.236;6.794;2023-07-02T20:23:12;9.52;;;4.70;;
17636;SDS011;8937;51.236;6.794;2023-07-02T20:31:34;10.95;;;4.57;;
17636;SDS011;8937;51.236;6.794;2023-07-02T20:39:56;8.45;;;4.40;;
17636;SDS011;8937;51.236;6.794;2023-07-02T20:48:20;6.95;;;4.43;;
17636;SDS011;8937;51.236;6.794;2023-07-02T20:56:41;8.82;;;4.07;;
17636;SDS011;8937;51.236;6.794;2023-07-02T21:05:04;9.13;;;4.30;;
17636;SDS011;8937;51.236;6.794;2023-07-02T21:13:25;6.93;;;4.15;;
17636;SDS011;8937;51.236;6.794;2023-07-02T21:21:48;10.38;;;4.13;;
17636;SDS011;8937;51.236;6.794;2023-07-02T21:30:11;8.75;;;4.40;;
17636;SDS011;8937;51.236;6.794;2023-07-02T21:38:34;10.85;;;4.47;;
17636;SDS011;8937;51.236;6.794;2023-07-02T21:46:57;6.75;;;3.47;;
17636;SDS011;8937;51.236;6.794;2023-07-02T21:55:20;4.05;;;3.10;;
17636;SDS011;8937;51.236;6.794;2023-07-02T22:03:41;6.13;;;2.42;;
17636;SDS011;8937;51.236;6.794;2023-07-02T22:12:04;5.13;;;2.25;;
17636;SDS011;8937;51.236;6.794;2023-07-02T22:20:25;3.83;;;2.00;;
17636;SDS011;8937;51.236;6.794;2023-07-02T22:28:48;4.30;;;2.13;;
17636;SDS011;8937;51.236;6.794;2023-07-02T22:37:10;3.95;;;2.00;;
17636;SDS011;8937;51.236;6.794;2023-07-02T22:45:32;3.20;;;2.30;;
17636;SDS011;8937;51.236;6.794;2023-07-02T22:53:54;4.63;;;2.00;;
17636;SDS011;8937;51.236;6.794;2023-07-02T23:02:16;2.53;;;1.93;;
17636;SDS011;8937;51.236;6.794;2023-07-02T23:10:38;4.97;;;2.17;;
17636;SDS011;8937;51.236;6.794;2023-07-02T23:19:00;3.70;;;1.80;;
17636;SDS011;8937;51.236;6.794;2023-07-02T23:27:22;5.83;;;2.00;;
17636;SDS011;8937;51.236;6.794;2023-07-02T23:35:45;5.63;;;2.13;;
17636;SDS011;8937;51.236;6.794;2023-07-02T23:44:06;4.37;;;2.30;;
17636;SDS011;8937;51.236;6.794;2023-07-02T23:52:29;3.07;;;1.90;;
